createdAt,value
2023-03-07T00:02:14.114Z,36.90
2023-03-07T00:04:45.087Z,36.90
2023-03-07T00:07:13.318Z,36.60
2023-03-07T00:09:42.618Z,36.80
2023-03-07T00:12:11.342Z,37.60
2023-03-07T00:14:39.332Z,37.90
2023-03-07T00:17:08.288Z,38.10
2023-03-07T00:19:36.357Z,37.60
2023-03-07T00:22:05.273Z,38.00
2023-03-07T00:24:33.352Z,37.20
2023-03-07T00:27:02.870Z,37.10
2023-03-07T00:29:31.097Z,36.80
2023-03-07T00:31:59.144Z,37.00
2023-03-07T00:34:27.326Z,37.10
2023-03-07T00:36:55.290Z,37.10
2023-03-07T00:39:23.809Z,37.10
2023-03-07T00:41:52.114Z,37.60
2023-03-07T00:44:22.662Z,37.50
2023-03-07T00:46:50.775Z,37.50
2023-03-07T00:49:20.367Z,38.30
2023-03-07T00:51:48.811Z,37.50
2023-03-07T00:54:16.975Z,37.50
2023-03-07T00:56:45.030Z,37.40
2023-03-07T00:59:13.101Z,37.60
2023-03-07T01:01:42.803Z,37.30
2023-03-07T01:04:10.846Z,37.10
2023-03-07T01:06:38.970Z,37.10
2023-03-07T01:09:08.526Z,37.30
2023-03-07T01:11:37.130Z,37.50
2023-03-07T01:14:06.306Z,37.70
2023-03-07T01:16:38.010Z,38.40
2023-03-07T01:19:09.041Z,38.40
2023-03-07T01:21:39.023Z,38.40
2023-03-07T01:24:08.019Z,39.30
2023-03-07T01:26:36.176Z,39.90
2023-03-07T01:29:05.517Z,40.80
2023-03-07T01:31:37.708Z,41.40
2023-03-07T01:34:08.103Z,41.40
2023-03-07T01:36:37.582Z,42.10
2023-03-07T01:39:07.856Z,42.20
2023-03-07T01:41:39.248Z,43.10
2023-03-07T01:44:15.216Z,43.10
2023-03-07T01:46:50.574Z,42.50
2023-03-07T01:49:29.473Z,43.60
2023-03-07T01:52:03.850Z,44.00
2023-03-07T01:54:33.719Z,45.80
2023-03-07T01:57:03.210Z,46.50
2023-03-07T01:59:34.897Z,46.50
2023-03-07T02:02:06.291Z,47.30
2023-03-07T02:04:38.814Z,47.10
2023-03-07T02:07:09.534Z,47.50
2023-03-07T02:09:38.326Z,48.20
2023-03-07T02:12:06.804Z,49.50
2023-03-07T02:14:35.291Z,50.00
2023-03-07T02:17:05.080Z,51.10
2023-03-07T02:19:48.078Z,52.00
2023-03-07T02:22:18.046Z,52.80
2023-03-07T02:24:49.693Z,54.20
2023-03-07T02:27:19.539Z,54.60
2023-03-07T02:29:47.891Z,56.40
2023-03-07T02:32:16.374Z,56.40
2023-03-07T02:34:44.418Z,56.70
2023-03-07T02:37:21.201Z,56.30
2023-03-07T02:39:50.394Z,56.20
2023-03-07T02:42:22.556Z,57.90
2023-03-07T02:44:56.868Z,58.60
2023-03-07T02:47:25.572Z,58.70
2023-03-07T02:49:54.352Z,58.30
2023-03-07T02:52:22.936Z,57.70
2023-03-07T02:54:51.945Z,57.40
2023-03-07T02:57:21.698Z,57.00
2023-03-07T02:59:49.860Z,56.20
2023-03-07T03:02:17.992Z,55.70
2023-03-07T03:04:47.448Z,56.60
2023-03-07T03:07:15.506Z,57.00
2023-03-07T03:09:43.398Z,56.70
2023-03-07T03:12:11.349Z,56.30
2023-03-07T03:14:41.638Z,55.30
2023-03-07T03:17:10.890Z,54.90
2023-03-07T03:19:48.864Z,54.30
2023-03-07T03:22:26.810Z,53.90
2023-03-07T03:24:59.042Z,53.10
2023-03-07T03:27:28.115Z,51.10
2023-03-07T03:29:58.719Z,51.10
2023-03-07T03:32:27.780Z,50.60
2023-03-07T03:34:57.968Z,50.70
2023-03-07T03:37:27.131Z,50.20
2023-03-07T03:39:57.139Z,50.50
2023-03-07T03:42:25.206Z,51.30
2023-03-07T03:44:53.311Z,51.00
2023-03-07T03:47:23.348Z,50.70
2023-03-07T03:49:51.342Z,51.40
2023-03-07T03:52:20.575Z,50.60
2023-03-07T03:54:49.493Z,50.60
2023-03-07T03:57:20.653Z,51.60
2023-03-07T03:59:49.039Z,50.20
2023-03-07T04:02:19.210Z,49.30
2023-03-07T04:04:48.778Z,49.30
2023-03-07T04:07:16.882Z,49.10
2023-03-07T04:09:45.134Z,49.60
2023-03-07T04:12:13.153Z,48.50
2023-03-07T04:14:41.059Z,48.60
2023-03-07T04:17:09.094Z,48.60
2023-03-07T04:19:38.241Z,47.90
2023-03-07T04:22:11.040Z,47.90
2023-03-07T04:24:39.334Z,47.30
2023-03-07T04:27:07.557Z,47.20
2023-03-07T04:29:37.431Z,47.10
2023-03-07T04:32:14.395Z,47.30
2023-03-07T04:34:42.465Z,47.10
2023-03-07T04:37:11.935Z,47.00
2023-03-07T04:39:40.026Z,47.00
2023-03-07T04:42:09.778Z,47.00
2023-03-07T04:44:38.313Z,46.70
2023-03-07T04:47:06.442Z,45.80
2023-03-07T04:49:36.893Z,44.60
2023-03-07T04:52:07.267Z,44.50
2023-03-07T04:54:37.352Z,44.30
2023-03-07T04:57:05.752Z,44.80
2023-03-07T04:59:36.218Z,44.90
2023-03-07T05:02:04.206Z,44.70
2023-03-07T05:04:33.118Z,44.50
2023-03-07T05:07:01.428Z,44.00
2023-03-07T05:09:29.632Z,43.20
2023-03-07T05:12:01.370Z,43.20
2023-03-07T05:14:30.286Z,42.90
2023-03-07T05:16:58.325Z,42.90
2023-03-07T05:19:26.950Z,43.10
2023-03-07T05:21:54.944Z,42.20
2023-03-07T05:24:23.073Z,42.10
2023-03-07T05:26:51.169Z,41.40
2023-03-07T05:29:21.164Z,41.20
2023-03-07T05:31:49.331Z,41.30
2023-03-07T05:34:17.832Z,41.30
2023-03-07T05:36:46.143Z,42.00
2023-03-07T05:39:15.561Z,42.00
2023-03-07T05:41:44.475Z,41.10
2023-03-07T05:44:13.713Z,40.10
2023-03-07T05:46:43.306Z,40.40
2023-03-07T05:49:11.781Z,41.20
2023-03-07T05:51:39.892Z,41.30
2023-03-07T05:54:08.001Z,41.10
2023-03-07T05:56:37.714Z,40.60
2023-03-07T05:59:07.638Z,40.30
2023-03-07T06:01:35.807Z,40.40
2023-03-07T06:04:05.363Z,41.00
2023-03-07T06:06:33.771Z,40.30
2023-03-07T06:09:02.088Z,41.10
2023-03-07T06:11:30.176Z,40.40
2023-03-07T06:13:58.190Z,41.10
2023-03-07T06:16:26.402Z,40.50
2023-03-07T06:18:55.462Z,39.80
2023-03-07T06:21:25.060Z,40.30
2023-03-07T06:23:53.258Z,40.20
2023-03-07T06:26:23.716Z,39.30
2023-03-07T06:28:54.458Z,39.20
2023-03-07T06:31:24.542Z,39.20
2023-03-07T06:33:56.015Z,38.40
2023-03-07T06:36:26.846Z,38.00
2023-03-07T06:38:58.422Z,38.00
2023-03-07T06:41:26.885Z,37.50
2023-03-07T06:43:56.989Z,37.40
2023-03-07T06:46:28.514Z,37.70
2023-03-07T06:48:57.524Z,37.50
2023-03-07T06:51:28.120Z,37.70
2023-03-07T06:53:58.732Z,37.00
2023-03-07T06:56:29.811Z,37.30
2023-03-07T06:58:58.394Z,37.80
2023-03-07T07:01:28.163Z,37.70
2023-03-07T07:03:58.868Z,37.50
2023-03-07T07:06:29.712Z,37.50
2023-03-07T07:08:58.409Z,37.70
2023-03-07T07:11:30.451Z,37.50
2023-03-07T07:13:58.469Z,37.50
2023-03-07T07:16:26.545Z,37.50
2023-03-07T07:18:54.567Z,37.60
2023-03-07T07:21:23.134Z,37.20
2023-03-07T07:23:52.884Z,37.30
2023-03-07T07:26:21.311Z,36.90
2023-03-07T07:28:49.515Z,37.10
2023-03-07T07:31:20.184Z,37.20
2023-03-07T07:33:48.319Z,36.40
2023-03-07T07:36:17.342Z,37.10
2023-03-07T07:38:45.834Z,36.40
2023-03-07T07:41:15.366Z,36.90
2023-03-07T07:43:50.058Z,36.30
2023-03-07T07:46:23.965Z,36.60
2023-03-07T07:48:53.414Z,36.10
2023-03-07T07:51:21.724Z,36.20
2023-03-07T07:53:50.009Z,36.40
2023-03-07T07:56:19.753Z,35.90
2023-03-07T07:58:47.989Z,35.90
2023-03-07T08:01:19.019Z,35.70
2023-03-07T08:03:47.374Z,35.50
2023-03-07T08:06:19.943Z,35.70
2023-03-07T08:08:49.119Z,35.80
2023-03-07T08:11:17.092Z,35.50
2023-03-07T08:13:47.233Z,35.30
2023-03-07T08:16:16.261Z,35.70
2023-03-07T08:18:49.314Z,35.30
2023-03-07T08:21:17.520Z,34.80
2023-03-07T08:23:45.684Z,34.50
2023-03-07T08:26:14.338Z,34.60
2023-03-07T08:28:43.257Z,33.70
2023-03-07T08:31:15.073Z,33.50
2023-03-07T08:33:43.861Z,34.50
2023-03-07T08:36:11.886Z,34.00
2023-03-07T08:38:40.868Z,34.10
2023-03-07T08:41:09.405Z,33.60
2023-03-07T08:43:39.249Z,33.90
2023-03-07T08:46:07.717Z,33.80
2023-03-07T08:48:37.150Z,33.90
2023-03-07T08:51:06.887Z,33.60
2023-03-07T08:53:35.321Z,33.90
2023-03-07T08:56:06.884Z,33.10
2023-03-07T08:58:35.007Z,33.40
2023-03-07T09:01:03.815Z,33.10
2023-03-07T09:03:32.144Z,33.60
2023-03-07T09:06:02.061Z,33.80
2023-03-07T09:08:30.069Z,33.40
2023-03-07T09:10:59.982Z,32.80
2023-03-07T09:13:28.414Z,33.10
2023-03-07T09:15:56.433Z,33.60
2023-03-07T09:18:25.064Z,32.90
2023-03-07T09:20:53.086Z,34.10
2023-03-07T09:23:22.564Z,33.90
2023-03-07T09:25:50.542Z,33.00
2023-03-07T09:28:18.688Z,33.50
2023-03-07T09:30:47.174Z,33.10
2023-03-07T09:33:15.166Z,32.90
2023-03-07T09:35:44.051Z,33.10
2023-03-07T09:38:14.079Z,33.40
2023-03-07T09:40:46.236Z,33.30
2023-03-07T09:43:19.432Z,34.10
2023-03-07T09:46:08.207Z,33.10
2023-03-07T09:48:54.794Z,34.50
2023-03-07T09:51:26.277Z,33.90
2023-03-07T09:53:56.209Z,34.20
2023-03-07T09:56:28.004Z,33.20
2023-03-07T09:59:02.542Z,32.60
2023-03-07T10:01:33.690Z,32.70
2023-03-07T10:04:02.703Z,32.80
2023-03-07T10:06:32.770Z,32.90
2023-03-07T10:09:01.761Z,32.90
2023-03-07T10:11:42.024Z,32.70
2023-03-07T10:14:14.962Z,31.00
2023-03-07T10:16:48.022Z,30.90
2023-03-07T10:19:20.928Z,30.20
2023-03-07T10:21:54.192Z,30.40
2023-03-07T10:24:31.777Z,29.50
2023-03-07T10:27:04.280Z,30.20
2023-03-07T10:29:35.753Z,30.20
2023-03-07T10:32:12.167Z,29.20
2023-03-07T10:34:41.814Z,29.10
2023-03-07T10:37:13.621Z,29.30
2023-03-07T10:39:44.432Z,27.70
2023-03-07T10:42:15.021Z,28.10
2023-03-07T10:44:45.216Z,28.80
2023-03-07T10:47:18.973Z,28.90
2023-03-07T10:49:47.935Z,29.00
2023-03-07T10:52:20.409Z,28.70
2023-03-07T10:54:48.744Z,27.70
2023-03-07T10:57:19.141Z,28.00
2023-03-07T10:59:48.507Z,27.90
2023-03-07T11:02:28.853Z,27.00
2023-03-07T11:04:56.999Z,27.70
2023-03-07T11:07:29.206Z,26.80
2023-03-07T11:09:57.691Z,27.40
2023-03-07T11:12:29.291Z,27.30
2023-03-07T11:14:58.920Z,27.60
2023-03-07T11:17:28.509Z,27.30
2023-03-07T11:19:57.347Z,26.70
2023-03-07T11:22:27.194Z,26.80
2023-03-07T11:24:57.939Z,27.20
2023-03-07T11:27:34.089Z,27.40
2023-03-07T11:30:22.916Z,27.40
2023-03-07T11:32:58.598Z,27.30
2023-03-07T11:35:32.061Z,26.90
2023-03-07T11:38:04.197Z,27.80
2023-03-07T11:40:35.830Z,25.80
2023-03-07T11:43:27.878Z,26.70
2023-03-07T11:46:00.212Z,25.80
2023-03-07T11:48:36.009Z,25.80
2023-03-07T11:51:04.731Z,25.80
2023-03-07T11:53:43.713Z,25.90
2023-03-07T11:56:18.213Z,25.60
2023-03-07T11:58:56.814Z,25.70
2023-03-07T12:01:31.736Z,25.00
2023-03-07T12:04:11.929Z,26.30
2023-03-07T12:06:44.886Z,24.50
2023-03-07T12:09:19.005Z,24.00
2023-03-07T12:12:00.386Z,24.20
2023-03-07T12:14:34.702Z,24.90
2023-03-07T12:17:07.843Z,24.50
2023-03-07T12:19:44.864Z,25.50
2023-03-07T12:22:21.289Z,23.70
2023-03-07T12:24:55.822Z,24.10
2023-03-07T12:27:27.153Z,24.30
2023-03-07T12:29:58.938Z,24.70
2023-03-07T12:32:27.599Z,24.90
2023-03-07T12:35:00.394Z,25.70
2023-03-07T12:37:31.501Z,25.00
2023-03-07T12:40:00.973Z,25.20
2023-03-07T12:42:33.904Z,24.60
2023-03-07T12:45:06.520Z,25.30
2023-03-07T12:47:37.126Z,25.00
2023-03-07T12:50:10.095Z,24.90
2023-03-07T12:52:41.937Z,24.70
2023-03-07T12:55:17.895Z,24.50
2023-03-07T12:57:50.176Z,25.00
2023-03-07T13:00:21.928Z,24.50
2023-03-07T13:02:54.331Z,23.70
2023-03-07T13:05:22.663Z,23.50
2023-03-07T13:07:51.104Z,24.30
2023-03-07T13:10:20.515Z,23.60
2023-03-07T13:12:48.967Z,23.60
2023-03-07T13:15:35.889Z,23.30
2023-03-07T13:18:05.716Z,23.00
2023-03-07T13:20:40.132Z,23.00
2023-03-07T13:23:28.347Z,24.30
2023-03-07T13:26:01.113Z,23.80
2023-03-07T13:28:33.993Z,23.40
2023-03-07T13:31:35.340Z,23.70
2023-03-07T13:34:19.240Z,24.50
2023-03-07T13:36:48.579Z,24.60
2023-03-07T13:39:31.509Z,24.60
2023-03-07T13:41:59.667Z,25.00
2023-03-07T13:44:30.266Z,25.00
2023-03-07T13:47:02.764Z,24.70
2023-03-07T13:49:34.831Z,24.80
2023-03-07T13:52:27.197Z,23.40
2023-03-07T13:54:55.419Z,24.50
2023-03-07T13:57:28.666Z,23.90
2023-03-07T13:59:57.624Z,23.20
2023-03-07T14:02:25.741Z,22.10
2023-03-07T14:04:57.606Z,22.20
2023-03-07T14:07:29.796Z,23.10
2023-03-07T14:09:58.889Z,22.10
2023-03-07T14:12:34.419Z,22.20
2023-03-07T14:15:20.602Z,22.70
2023-03-07T14:17:57.018Z,22.90
2023-03-07T14:20:28.566Z,23.60
2023-03-07T14:23:05.214Z,23.10
2023-03-07T14:25:34.461Z,23.40
2023-03-07T14:28:04.117Z,23.60
2023-03-07T14:30:35.736Z,23.70
2023-03-07T14:33:03.907Z,24.10
2023-03-07T14:35:39.724Z,23.80
2023-03-07T14:38:10.279Z,24.20
2023-03-07T14:40:44.937Z,24.50
2023-03-07T14:43:20.034Z,24.20
2023-03-07T14:45:50.415Z,24.30
2023-03-07T14:48:39.512Z,24.50
2023-03-07T14:51:12.963Z,24.70
2023-03-07T14:53:43.429Z,25.00
2023-03-07T14:56:11.935Z,25.30
2023-03-07T14:58:47.750Z,25.80
2023-03-07T15:01:19.679Z,26.10
2023-03-07T15:03:48.580Z,26.20
2023-03-07T15:06:17.420Z,26.20
2023-03-07T15:08:48.774Z,26.40
2023-03-07T15:11:24.914Z,26.80
2023-03-07T15:13:53.996Z,27.00
2023-03-07T15:16:26.132Z,27.30
2023-03-07T15:18:58.165Z,27.30
2023-03-07T15:21:27.345Z,27.20
2023-03-07T15:23:58.310Z,27.00
2023-03-07T15:26:27.519Z,27.50
2023-03-07T15:28:59.616Z,27.30
2023-03-07T15:31:29.911Z,27.00
2023-03-07T15:34:10.131Z,27.10
2023-03-07T15:36:39.573Z,27.50
2023-03-07T15:39:24.296Z,28.00
2023-03-07T15:41:59.739Z,27.80
2023-03-07T15:44:28.307Z,27.90
2023-03-07T15:46:57.804Z,27.80
2023-03-07T15:49:28.039Z,28.00
2023-03-07T15:51:59.284Z,28.00
2023-03-07T15:54:35.188Z,28.00
2023-03-07T15:57:05.764Z,28.30
2023-03-07T15:59:36.276Z,27.90
2023-03-07T16:02:39.960Z,27.80
2023-03-07T16:05:27.977Z,28.30
2023-03-07T16:07:57.123Z,28.30
2023-03-07T16:10:27.801Z,28.40
2023-03-07T16:13:00.142Z,28.30
2023-03-07T16:15:28.463Z,28.30
2023-03-07T16:17:56.746Z,28.10
2023-03-07T16:20:27.240Z,28.20
2023-03-07T16:22:55.753Z,28.20
2023-03-07T16:25:25.383Z,27.90
2023-03-07T16:27:57.260Z,28.00
2023-03-07T16:30:26.553Z,27.80
2023-03-07T16:32:54.867Z,27.90
2023-03-07T16:35:25.033Z,28.00
2023-03-07T16:37:53.728Z,27.90
2023-03-07T16:40:22.789Z,28.10
2023-03-07T16:42:51.663Z,28.40
2023-03-07T16:45:23.527Z,28.40
2023-03-07T16:47:52.529Z,28.80
2023-03-07T16:50:21.506Z,28.20
2023-03-07T16:52:49.812Z,27.80
2023-03-07T16:55:19.433Z,27.80
2023-03-07T16:57:52.307Z,27.90
2023-03-07T17:00:23.200Z,27.60
2023-03-07T17:02:52.762Z,27.40
2023-03-07T17:05:22.014Z,27.30
2023-03-07T17:07:50.222Z,27.10
2023-03-07T17:10:24.105Z,27.10
2023-03-07T17:12:53.630Z,27.20
2023-03-07T17:15:26.257Z,27.20
2023-03-07T17:17:54.880Z,27.20
2023-03-07T17:20:24.434Z,27.20
2023-03-07T17:22:53.876Z,26.70
2023-03-07T17:25:24.764Z,26.70
2023-03-07T17:27:55.275Z,26.80
2023-03-07T17:30:25.499Z,26.60
2023-03-07T17:33:02.038Z,26.60
2023-03-07T17:35:30.634Z,26.80
2023-03-07T17:37:58.763Z,27.10
2023-03-07T17:40:26.748Z,27.10
2023-03-07T17:43:13.761Z,26.80
2023-03-07T17:45:43.664Z,26.40
2023-03-07T17:48:11.721Z,27.20
2023-03-07T17:50:41.000Z,27.00
2023-03-07T17:53:09.858Z,27.20
2023-03-07T17:55:38.862Z,27.10
2023-03-07T17:58:08.108Z,27.20
2023-03-07T18:00:38.935Z,27.10
2023-03-07T18:03:08.813Z,27.20
2023-03-07T18:05:37.129Z,27.00
2023-03-07T18:08:05.424Z,27.10
2023-03-07T18:10:33.499Z,27.40
2023-03-07T18:13:01.744Z,27.20
2023-03-07T18:15:29.831Z,27.40
2023-03-07T18:18:00.099Z,27.50
2023-03-07T18:20:29.846Z,27.80
2023-03-07T18:22:57.866Z,27.30
2023-03-07T18:25:26.042Z,27.40
2023-03-07T18:27:54.055Z,27.40
2023-03-07T18:30:22.235Z,27.50
2023-03-07T18:33:08.808Z,27.80
2023-03-07T18:35:39.990Z,27.70
2023-03-07T18:38:08.672Z,27.90
2023-03-07T18:41:03.800Z,27.70
2023-03-07T18:43:50.939Z,28.10
2023-03-07T18:46:39.412Z,28.00
2023-03-07T18:49:29.599Z,27.80
2023-03-07T18:52:19.453Z,27.50
2023-03-07T18:55:08.627Z,27.80
2023-03-07T18:57:57.068Z,27.60
2023-03-07T19:00:45.469Z,27.80
2023-03-07T19:03:35.123Z,27.50
2023-03-07T19:06:24.403Z,27.70
2023-03-07T19:09:16.395Z,27.80
2023-03-07T19:12:04.821Z,27.40
2023-03-07T19:14:53.215Z,27.50
2023-03-07T19:17:43.596Z,27.40
2023-03-07T19:20:32.090Z,27.50
2023-03-07T19:23:21.607Z,27.50
2023-03-07T19:26:12.125Z,27.90
2023-03-07T19:29:00.451Z,27.80
2023-03-07T19:31:48.904Z,27.70
2023-03-07T19:34:37.232Z,27.70
2023-03-07T19:37:26.052Z,27.50
2023-03-07T19:40:15.341Z,27.40
2023-03-07T19:43:05.196Z,27.50
2023-03-07T19:45:55.550Z,27.90
2023-03-07T19:48:44.368Z,27.30
2023-03-07T19:51:32.749Z,27.40
2023-03-07T19:54:22.617Z,27.20
2023-03-07T19:57:14.860Z,27.40
2023-03-07T20:00:05.232Z,27.00
2023-03-07T20:03:00.757Z,26.60
2023-03-07T20:05:50.978Z,27.00
2023-03-07T20:08:39.384Z,26.90
2023-03-07T20:11:29.547Z,26.90
2023-03-07T20:14:17.968Z,26.70
2023-03-07T20:17:07.611Z,26.90
2023-03-07T20:19:59.720Z,26.90
2023-03-07T20:22:48.049Z,27.10
2023-03-07T20:25:36.461Z,27.00
2023-03-07T20:28:24.901Z,26.70
2023-03-07T20:31:13.313Z,27.50
2023-03-07T20:34:03.526Z,27.10
2023-03-07T20:36:51.839Z,26.90
2023-03-07T20:39:40.185Z,27.10
2023-03-07T20:42:28.540Z,27.30
2023-03-07T20:45:17.143Z,27.40
2023-03-07T20:48:05.523Z,27.60
2023-03-07T20:50:55.705Z,27.40
2023-03-07T20:53:43.962Z,27.50
2023-03-07T20:56:33.240Z,27.50
2023-03-07T20:59:23.783Z,27.50
2023-03-07T21:02:12.736Z,27.50
2023-03-07T21:05:01.346Z,27.50
2023-03-07T21:07:51.126Z,27.70
2023-03-07T21:10:39.610Z,27.80
2023-03-07T21:13:28.260Z,27.60
2023-03-07T21:16:17.576Z,27.20
2023-03-07T21:19:06.672Z,27.00
2023-03-07T21:21:54.983Z,27.40
2023-03-07T21:24:44.645Z,27.30
2023-03-07T21:27:33.075Z,27.50
2023-03-07T21:30:21.428Z,27.40
2023-03-07T21:33:10.751Z,27.20
2023-03-07T21:35:59.533Z,27.40
2023-03-07T21:38:49.206Z,27.20
2023-03-07T21:41:39.052Z,27.00
2023-03-07T21:44:27.421Z,27.30
2023-03-07T21:47:17.320Z,27.50
2023-03-07T21:50:05.954Z,28.00
2023-03-07T21:52:54.415Z,28.00
2023-03-07T21:55:49.982Z,27.50
2023-03-07T21:58:40.867Z,27.60
2023-03-07T22:01:29.899Z,27.60
2023-03-07T22:04:18.377Z,27.40
2023-03-07T22:07:06.985Z,27.80
2023-03-07T22:09:55.316Z,27.90
2023-03-07T22:12:43.985Z,27.60
2023-03-07T22:15:33.711Z,27.60
2023-03-07T22:18:22.025Z,27.60
2023-03-07T22:21:11.598Z,28.00
2023-03-07T22:24:01.012Z,28.30
2023-03-07T22:26:49.717Z,28.00
2023-03-07T22:29:38.006Z,27.80
2023-03-07T22:32:27.748Z,27.90
2023-03-07T22:35:16.156Z,27.50
2023-03-07T22:38:07.232Z,27.50
2023-03-07T22:41:00.583Z,27.80
2023-03-07T22:43:48.973Z,27.90
2023-03-07T22:46:37.267Z,28.00
2023-03-07T22:49:27.796Z,27.60
2023-03-07T22:52:16.219Z,27.70
2023-03-07T22:55:04.646Z,27.60
2023-03-07T22:57:52.960Z,27.50
2023-03-07T23:00:41.939Z,27.30
2023-03-07T23:03:30.511Z,27.40
2023-03-07T23:06:20.715Z,27.50
2023-03-07T23:09:09.925Z,27.70
2023-03-07T23:11:58.320Z,27.50
2023-03-07T23:14:46.952Z,27.50
2023-03-07T23:17:35.527Z,27.60
2023-03-07T23:20:26.134Z,28.20
2023-03-07T23:23:15.925Z,29.00
2023-03-07T23:26:04.388Z,28.80
2023-03-07T23:28:52.827Z,28.80
2023-03-07T23:31:42.720Z,29.20
2023-03-07T23:34:31.042Z,28.80
2023-03-07T23:37:19.348Z,28.90
2023-03-07T23:40:11.932Z,29.10
2023-03-07T23:43:00.315Z,29.10
2023-03-07T23:45:48.643Z,29.40
2023-03-07T23:48:37.077Z,29.30
2023-03-07T23:51:25.802Z,29.00
2023-03-07T23:54:14.055Z,29.30
2023-03-07T23:57:04.004Z,28.90
2023-03-07T23:59:52.502Z,29.40
